Airfield :
LOGIN :

Register | Disclaimer

   EN    FR    IT 

 










Legend :    VFR   Marginal VFR   IFR   Intensive IFR   Very Intensive IFR
Visi :
Ceiling :
>= 8 km
>= 3000ft
5 to 8 km
1000 to 3000 ft
1500m to 5 km
500 to 1000 ft
800 to 1500m
200 to 500 ft
< 800m
< 200 ft
Symbols :   Thunderstorms  Fog  Heavy snow  Heavy precipitations  Wind > 20 kt
SIGMETs :     Misc.  Thunderstorms  Icing  Turbulence  Mountain Waves  Volcanic Ashes






- Airport Elevation : 25 ft
- IATA code : QCY


EGXC - RAF Coningsby

CURRENT METAR :
  • 311650Z 31011KT 9999 FEW032 BKN050 20/12 Q1007 RMK BLU

EXPIRED METARs :
  • 311550Z 29011KT 9999 FEW032 BKN050 21/12 Q1007 NOSIG RMK BLU BLU
  • 311520Z 30011KT 9999 FEW032 BKN050 21/13 Q1007 NOSIG RMK BLU BLU
  • 311450Z 29012KT 9999 FEW034 BKN050 21/12 Q1007 NOSIG RMK BLU BLU
  • 311420Z 27014KT 9999 SCT034 BKN050 20/13 Q1007 NOSIG RMK BLU BLU

TAF TAF EGXC
Valid from the 31 at 18:00 until the 01 at 12:00 UTC


311649Z 3118/0112 29008KT 9999 SCT030
PROB40
TEMPO 3122/0102 SCT018
TEMPO 0102/0112 4000 -RADZ BKN010
PROB30
TEMPO 0103/0108 3000 RADZ SCT004



MET'MAP, your aeronautical weather chart ! - Copyright ORBIFLY December 2007 - Disclaimer

ORBIFLY MET'MAP TEAM :

Programming & Development : Alexandra Zaïnal
Concept & original design : Baudouin d'Aumeries
Assistance for programming : Marc-Olivier Méhu
Technical & hardware support : Manuel Goepfert

Contact : metmap@orbifly.com




SOURCES & CREDITS :

   NOAA